createdAt,value
2022-11-19T00:01:10.115Z,7.60
2022-11-19T00:03:38.235Z,6.97
2022-11-19T00:06:07.844Z,8.50
2022-11-19T00:08:35.136Z,8.27
2022-11-19T00:11:09.510Z,7.83
2022-11-19T00:13:37.523Z,8.30
2022-11-19T00:16:09.339Z,8.53
2022-11-19T00:18:36.004Z,9.00
2022-11-19T00:21:08.072Z,9.80
2022-11-19T00:23:34.959Z,8.10
2022-11-19T00:26:19.811Z,9.57
2022-11-19T00:28:46.608Z,10.10
2022-11-19T00:31:14.711Z,9.23
2022-11-19T00:33:42.433Z,11.13
2022-11-19T00:36:12.082Z,11.67
2022-11-19T00:38:38.736Z,11.47
2022-11-19T00:41:05.933Z,12.33
2022-11-19T00:43:48.369Z,12.80
2022-11-19T00:46:21.519Z,12.60
2022-11-19T00:48:49.625Z,12.73
2022-11-19T00:51:18.152Z,12.73
2022-11-19T00:53:45.001Z,12.67
2022-11-19T00:56:13.594Z,13.30
2022-11-19T00:58:40.652Z,12.70
2022-11-19T01:01:07.919Z,13.60
2022-11-19T01:03:35.132Z,13.77
2022-11-19T01:06:02.171Z,14.70
2022-11-19T01:08:28.790Z,14.47
2022-11-19T01:10:55.318Z,13.23
2022-11-19T01:13:37.618Z,15.80
2022-11-19T01:16:04.285Z,15.50
2022-11-19T01:18:31.327Z,15.93
2022-11-19T01:20:57.841Z,16.13
2022-11-19T01:23:24.385Z,16.80
2022-11-19T01:25:50.916Z,16.40
2022-11-19T01:28:17.876Z,16.77
2022-11-19T01:30:44.732Z,17.37
2022-11-19T01:33:11.492Z,17.67
2022-11-19T01:35:38.609Z,18.37
2022-11-19T01:38:05.674Z,17.20
2022-11-19T01:40:32.700Z,16.20
2022-11-19T01:42:59.704Z,17.07
2022-11-19T01:45:36.045Z,17.03
2022-11-19T01:48:15.250Z,16.43
2022-11-19T01:50:47.168Z,17.43
2022-11-19T01:53:13.879Z,17.37
2022-11-19T01:55:43.124Z,16.73
2022-11-19T01:58:10.750Z,17.63
2022-11-19T02:00:37.222Z,19.10
2022-11-19T02:03:04.065Z,17.90
2022-11-19T02:05:30.671Z,16.50
2022-11-19T02:07:58.586Z,17.60
2022-11-19T02:10:39.209Z,18.80
2022-11-19T02:13:30.415Z,18.03
2022-11-19T02:16:21.533Z,19.10
2022-11-19T02:19:29.625Z,20.10
2022-11-19T02:21:56.044Z,18.33
2022-11-19T02:24:41.697Z,19.40
2022-11-19T02:27:30.919Z,19.07
2022-11-19T02:30:05.958Z,18.60
2022-11-19T02:32:53.784Z,19.83
2022-11-19T02:35:59.921Z,19.30
2022-11-19T02:38:48.256Z,17.70
2022-11-19T02:41:35.185Z,19.30
2022-11-19T02:44:47.501Z,18.70
2022-11-19T02:47:22.569Z,18.53
2022-11-19T02:49:51.364Z,19.27
2022-11-19T02:52:18.554Z,19.50
2022-11-19T02:54:45.066Z,18.83
2022-11-19T02:57:12.570Z,18.87
2022-11-19T03:00:07.426Z,19.90
2022-11-19T03:02:57.110Z,18.17
2022-11-19T03:05:26.546Z,18.93
2022-11-19T03:07:53.103Z,20.07
2022-11-19T03:10:22.884Z,20.23
2022-11-19T03:12:54.025Z,20.70
2022-11-19T03:15:48.350Z,19.53
2022-11-19T03:18:33.498Z,20.10
2022-11-19T03:21:08.631Z,20.47
2022-11-19T03:23:47.606Z,21.23
2022-11-19T03:26:17.044Z,19.40
2022-11-19T03:28:44.635Z,20.90
2022-11-19T03:31:11.563Z,19.83
2022-11-19T03:33:50.781Z,19.20
2022-11-19T03:36:27.055Z,20.13
2022-11-19T03:38:58.055Z,18.80
2022-11-19T03:41:25.886Z,20.00
2022-11-19T03:43:56.107Z,20.30
2022-11-19T03:46:23.140Z,19.47
2022-11-19T03:48:52.762Z,20.63
2022-11-19T03:51:41.675Z,20.60
2022-11-19T03:54:08.673Z,18.87
2022-11-19T03:56:37.671Z,19.77
2022-11-19T03:59:07.727Z,21.90
2022-11-19T04:01:36.645Z,21.00
2022-11-19T04:04:22.344Z,20.40
2022-11-19T04:06:48.938Z,19.80
2022-11-19T04:09:15.570Z,19.83
2022-11-19T04:11:43.383Z,21.07
2022-11-19T04:14:09.931Z,20.40
2022-11-19T04:16:36.769Z,20.40
2022-11-19T04:19:03.397Z,21.63
2022-11-19T04:21:30.209Z,20.93
2022-11-19T04:23:56.701Z,20.63
2022-11-19T04:26:23.190Z,21.10
2022-11-19T04:28:49.724Z,22.47
2022-11-19T04:31:18.041Z,22.40
2022-11-19T04:33:44.800Z,24.03
2022-11-19T04:36:11.236Z,23.03
2022-11-19T04:38:37.901Z,22.50
2022-11-19T04:41:04.485Z,24.47
2022-11-19T04:43:30.991Z,22.90
2022-11-19T04:45:57.694Z,23.17
2022-11-19T04:48:24.220Z,21.97
2022-11-19T04:50:50.655Z,23.97
2022-11-19T04:53:17.172Z,22.00
2022-11-19T04:55:43.684Z,22.27
2022-11-19T04:58:10.360Z,22.17
2022-11-19T05:00:37.300Z,23.80
2022-11-19T05:03:04.159Z,22.67
2022-11-19T05:05:30.791Z,23.00
2022-11-19T05:07:57.234Z,22.00
2022-11-19T05:10:23.868Z,23.67
2022-11-19T05:12:50.365Z,24.13
2022-11-19T05:15:16.891Z,22.20
2022-11-19T05:17:44.797Z,22.33
2022-11-19T05:20:11.571Z,21.77
2022-11-19T05:22:38.022Z,22.87
2022-11-19T05:25:04.842Z,23.73
2022-11-19T05:27:31.402Z,22.60
2022-11-19T05:29:57.850Z,20.70
2022-11-19T05:32:24.328Z,21.57
2022-11-19T05:34:50.895Z,20.90
2022-11-19T05:37:17.596Z,21.57
2022-11-19T05:39:44.132Z,20.77
2022-11-19T05:42:10.586Z,18.63
2022-11-19T05:44:37.123Z,21.47
2022-11-19T05:47:03.634Z,20.30
2022-11-19T05:49:30.136Z,20.53
2022-11-19T05:51:56.582Z,19.27
2022-11-19T05:54:23.250Z,19.30
2022-11-19T05:56:49.838Z,20.93
2022-11-19T05:59:16.586Z,20.10
2022-11-19T06:01:43.127Z,17.93
2022-11-19T06:04:10.989Z,17.10
2022-11-19T06:06:37.966Z,19.70
2022-11-19T06:09:04.721Z,19.17
2022-11-19T06:11:50.420Z,21.90
2022-11-19T06:14:19.412Z,19.73
2022-11-19T06:16:45.874Z,18.90
2022-11-19T06:19:12.358Z,17.37
2022-11-19T06:21:38.907Z,20.60
2022-11-19T06:24:05.950Z,20.00
2022-11-19T06:26:32.468Z,18.50
2022-11-19T06:28:58.913Z,17.57
2022-11-19T06:31:25.443Z,19.50
2022-11-19T06:33:53.595Z,17.60
2022-11-19T06:36:20.583Z,19.10
2022-11-19T06:38:47.134Z,17.97
2022-11-19T06:41:13.764Z,18.27
2022-11-19T06:43:40.307Z,18.07
2022-11-19T06:46:06.773Z,17.10
2022-11-19T06:48:33.257Z,17.70
2022-11-19T06:51:01.570Z,16.70
2022-11-19T06:53:28.543Z,15.53
2022-11-19T06:55:58.697Z,15.77
2022-11-19T06:58:25.428Z,17.60
2022-11-19T07:00:52.113Z,16.50
2022-11-19T07:03:19.125Z,17.73
2022-11-19T07:05:47.915Z,15.93
2022-11-19T07:08:14.842Z,16.87
2022-11-19T07:10:41.336Z,16.13
2022-11-19T07:13:07.918Z,15.70
2022-11-19T07:15:34.981Z,16.60
2022-11-19T07:18:02.062Z,15.80
2022-11-19T07:20:28.890Z,15.90
2022-11-19T07:22:59.141Z,14.80
2022-11-19T07:25:26.215Z,15.00
2022-11-19T07:27:52.783Z,14.63
2022-11-19T07:30:19.408Z,14.10
2022-11-19T07:32:45.977Z,13.77
2022-11-19T07:35:12.734Z,12.70
2022-11-19T07:37:39.245Z,13.03
2022-11-19T07:40:06.495Z,13.70
2022-11-19T07:42:51.429Z,12.90
2022-11-19T07:45:19.457Z,12.63
2022-11-19T07:47:46.289Z,12.10
2022-11-19T07:50:13.077Z,12.83
2022-11-19T07:52:39.745Z,11.50
2022-11-19T07:55:07.149Z,12.60
2022-11-19T07:57:33.735Z,12.30
2022-11-19T08:00:00.281Z,11.67
2022-11-19T08:02:26.875Z,12.33
2022-11-19T08:04:53.402Z,11.70
2022-11-19T08:07:20.014Z,11.57
2022-11-19T08:09:46.952Z,10.77
2022-11-19T08:12:13.675Z,11.33
2022-11-19T08:14:40.181Z,12.20
2022-11-19T08:17:25.360Z,10.27
2022-11-19T08:19:51.880Z,11.07
2022-11-19T08:22:18.533Z,10.23
2022-11-19T08:24:45.047Z,10.90
2022-11-19T08:27:11.867Z,11.23
2022-11-19T08:29:38.611Z,11.70
2022-11-19T08:32:05.081Z,10.77
2022-11-19T08:34:32.193Z,10.80
2022-11-19T08:36:59.060Z,11.80
2022-11-19T08:39:25.541Z,11.80
2022-11-19T08:42:10.654Z,10.57
2022-11-19T08:44:37.176Z,9.93
2022-11-19T08:47:03.656Z,10.47
2022-11-19T08:49:30.189Z,10.83
2022-11-19T08:51:57.941Z,10.17
2022-11-19T08:54:24.423Z,12.73
2022-11-19T08:56:51.074Z,11.67
2022-11-19T08:59:17.836Z,9.90
2022-11-19T09:01:44.489Z,10.60
2022-11-19T09:04:10.951Z,11.87
2022-11-19T09:06:37.464Z,11.93
2022-11-19T09:09:04.818Z,10.83
2022-11-19T09:11:31.376Z,10.10
2022-11-19T09:13:58.633Z,10.93
2022-11-19T09:16:25.177Z,10.20
2022-11-19T09:18:51.640Z,9.90
2022-11-19T09:21:18.177Z,10.27
2022-11-19T09:23:44.659Z,10.10
2022-11-19T09:26:14.167Z,9.17
2022-11-19T09:28:41.083Z,9.80
2022-11-19T09:31:15.867Z,9.80
2022-11-19T09:33:45.643Z,9.37
2022-11-19T09:36:13.404Z,10.50
2022-11-19T09:38:40.870Z,11.57
2022-11-19T09:41:25.687Z,10.80
2022-11-19T09:44:17.533Z,10.50
2022-11-19T09:47:02.441Z,10.13
2022-11-19T09:49:37.914Z,9.10
2022-11-19T09:52:07.771Z,8.10
2022-11-19T09:54:34.734Z,9.40
2022-11-19T09:57:04.699Z,8.53
2022-11-19T09:59:38.438Z,9.53
2022-11-19T10:02:21.878Z,9.00
2022-11-19T10:04:50.729Z,8.63
2022-11-19T10:07:35.889Z,8.47
2022-11-19T10:10:23.769Z,9.17
2022-11-19T10:13:12.031Z,9.27
2022-11-19T10:15:44.552Z,9.73
2022-11-19T10:18:20.665Z,8.70
2022-11-19T10:21:30.528Z,9.30
2022-11-19T10:24:19.166Z,10.17
2022-11-19T10:27:09.842Z,9.40
2022-11-19T10:29:39.059Z,9.47
2022-11-19T10:32:41.108Z,9.23
2022-11-19T10:35:18.716Z,9.93
2022-11-19T10:37:56.092Z,9.13
2022-11-19T10:40:24.330Z,8.93
2022-11-19T10:42:54.984Z,10.67
2022-11-19T10:45:24.521Z,8.93
2022-11-19T10:48:09.307Z,9.57
2022-11-19T10:50:36.609Z,8.83
2022-11-19T10:53:25.276Z,9.60
2022-11-19T10:55:55.160Z,10.13
2022-11-19T10:58:30.114Z,8.63
2022-11-19T11:00:58.264Z,9.40
2022-11-19T11:03:29.091Z,9.57
2022-11-19T11:05:55.685Z,9.90
2022-11-19T11:08:22.255Z,9.50
2022-11-19T11:10:48.796Z,8.83
2022-11-19T11:13:33.930Z,9.20
2022-11-19T11:16:06.958Z,9.40
2022-11-19T11:18:33.738Z,9.93
2022-11-19T11:21:00.504Z,9.50
2022-11-19T11:23:30.999Z,9.23
2022-11-19T11:26:05.855Z,9.70
2022-11-19T11:28:33.046Z,10.33
2022-11-19T11:31:05.201Z,9.63
2022-11-19T11:33:34.893Z,9.57
2022-11-19T11:36:12.980Z,9.50
2022-11-19T11:38:47.877Z,9.83
2022-11-19T11:42:03.410Z,9.40
2022-11-19T11:44:21.998Z,9.37
2022-11-19T11:46:51.078Z,10.43
2022-11-19T11:49:31.233Z,9.70
2022-11-19T11:52:13.058Z,10.70
2022-11-19T11:55:02.399Z,9.00
2022-11-19T11:57:29.944Z,8.40
2022-11-19T11:59:57.229Z,9.30
2022-11-19T12:02:26.843Z,10.10
2022-11-19T12:04:54.972Z,9.73
2022-11-19T12:07:40.196Z,8.73
2022-11-19T12:10:09.748Z,9.43
2022-11-19T12:12:39.077Z,8.40
2022-11-19T12:15:22.362Z,9.30
2022-11-19T12:17:53.911Z,10.23
2022-11-19T12:20:22.540Z,9.43
2022-11-19T12:22:56.675Z,9.47
2022-11-19T12:25:39.143Z,9.83
2022-11-19T12:28:34.337Z,10.83
2022-11-19T12:31:13.047Z,10.40
2022-11-19T12:33:56.331Z,9.23
2022-11-19T12:36:57.470Z,9.57
2022-11-19T12:39:45.693Z,9.67
2022-11-19T12:42:33.921Z,8.90
2022-11-19T12:45:17.211Z,8.90
2022-11-19T12:48:02.654Z,9.97
2022-11-19T12:50:30.452Z,8.87
2022-11-19T12:53:27.790Z,9.70
2022-11-19T12:56:06.547Z,9.50
2022-11-19T12:59:01.931Z,9.37
2022-11-19T13:01:32.828Z,8.73
2022-11-19T13:04:17.234Z,8.73
2022-11-19T13:06:49.701Z,9.07
2022-11-19T13:09:39.569Z,9.33
2022-11-19T13:12:08.854Z,9.80
2022-11-19T13:14:41.034Z,9.33
2022-11-19T13:17:16.687Z,9.60
2022-11-19T13:19:46.723Z,8.93
2022-11-19T13:22:18.958Z,9.60
2022-11-19T13:24:56.451Z,9.33
2022-11-19T13:27:26.291Z,9.07
2022-11-19T13:30:03.098Z,8.53
2022-11-19T13:32:54.552Z,8.83
2022-11-19T13:35:21.205Z,8.80
2022-11-19T13:38:22.358Z,9.57
2022-11-19T13:41:04.888Z,9.13
2022-11-19T13:43:49.996Z,7.83
2022-11-19T13:46:21.707Z,8.70
2022-11-19T13:49:02.962Z,8.07
2022-11-19T13:51:53.670Z,8.80
2022-11-19T13:54:34.531Z,9.53
2022-11-19T13:57:01.607Z,8.70
2022-11-19T13:59:38.008Z,9.17
2022-11-19T14:03:01.269Z,8.60
2022-11-19T14:05:27.741Z,8.70
2022-11-19T14:08:05.803Z,9.60
2022-11-19T14:10:37.700Z,10.07
2022-11-19T14:13:33.319Z,10.00
2022-11-19T14:16:27.830Z,7.90
2022-11-19T14:19:18.353Z,9.20
2022-11-19T14:22:05.808Z,9.60
2022-11-19T14:24:50.615Z,9.60
2022-11-19T14:27:21.208Z,8.70
2022-11-19T14:29:47.640Z,8.60
2022-11-19T14:32:14.093Z,9.80
2022-11-19T14:35:02.484Z,9.80
2022-11-19T14:37:41.618Z,8.70
2022-11-19T14:40:15.640Z,9.07
2022-11-19T14:43:19.224Z,8.50
2022-11-19T14:46:01.711Z,8.20
2022-11-19T14:48:29.901Z,9.00
2022-11-19T14:51:10.885Z,9.07
2022-11-19T14:53:46.395Z,8.00
2022-11-19T14:56:15.627Z,8.70
2022-11-19T14:58:58.667Z,8.90
2022-11-19T15:01:25.287Z,8.50
2022-11-19T15:03:55.882Z,7.73
2022-11-19T15:06:22.608Z,9.27
2022-11-19T15:08:54.512Z,8.70
2022-11-19T15:11:21.359Z,8.10
2022-11-19T15:13:49.397Z,9.70
2022-11-19T15:16:17.889Z,9.20
2022-11-19T15:18:44.376Z,8.53
2022-11-19T15:21:16.982Z,8.60
2022-11-19T15:24:18.082Z,8.90
2022-11-19T15:26:59.993Z,9.13
2022-11-19T15:29:32.191Z,9.50
2022-11-19T15:32:20.543Z,13.67
2022-11-19T15:35:12.086Z,10.10
2022-11-19T15:37:54.393Z,10.30
2022-11-19T15:40:29.155Z,11.30
2022-11-19T15:43:06.906Z,12.40
2022-11-19T15:45:47.156Z,18.73
2022-11-19T15:48:20.263Z,12.77
2022-11-19T15:50:47.200Z,10.90
2022-11-19T15:53:24.522Z,15.90
2022-11-19T15:56:02.418Z,13.00
2022-11-19T15:58:49.145Z,16.70
2022-11-19T16:01:18.970Z,12.40
2022-11-19T16:03:45.811Z,11.00
2022-11-19T16:06:18.847Z,12.50
2022-11-19T16:08:47.261Z,11.80
2022-11-19T16:11:35.785Z,11.87
2022-11-19T16:14:21.177Z,12.50
2022-11-19T16:17:10.219Z,11.63
2022-11-19T16:19:36.736Z,12.90
2022-11-19T16:22:04.863Z,11.90
2022-11-19T16:24:50.531Z,10.70
2022-11-19T16:27:22.812Z,11.43
2022-11-19T16:29:49.288Z,11.97
2022-11-19T16:32:18.710Z,11.17
2022-11-19T16:34:46.213Z,14.60
2022-11-19T16:37:14.593Z,18.67
2022-11-19T16:39:42.355Z,10.90
2022-11-19T16:42:18.171Z,11.37
2022-11-19T16:44:56.647Z,9.97
2022-11-19T16:47:32.554Z,9.73
2022-11-19T16:50:27.278Z,10.23
2022-11-19T16:52:54.617Z,11.17
2022-11-19T16:55:24.277Z,10.57
2022-11-19T16:57:56.770Z,11.10
2022-11-19T17:00:25.336Z,11.60
2022-11-19T17:02:52.311Z,10.43
2022-11-19T17:05:22.128Z,11.73
2022-11-19T17:07:50.185Z,11.20
2022-11-19T17:10:21.194Z,11.23
2022-11-19T17:12:55.361Z,10.43
2022-11-19T17:15:37.385Z,9.50
2022-11-19T17:18:09.842Z,10.50
2022-11-19T17:20:36.336Z,10.40
2022-11-19T17:23:10.612Z,10.63
2022-11-19T17:26:06.635Z,10.20
2022-11-19T17:28:46.450Z,37.10
2022-11-19T17:31:31.552Z,51.00
2022-11-19T17:34:07.943Z,10.97
2022-11-19T17:36:34.380Z,9.40
2022-11-19T17:39:00.880Z,10.40
2022-11-19T17:41:47.189Z,9.83
2022-11-19T17:44:34.855Z,12.10
2022-11-19T17:47:24.013Z,12.83
2022-11-19T17:49:52.649Z,13.03
2022-11-19T17:52:22.618Z,11.50
2022-11-19T17:54:50.208Z,12.73
2022-11-19T17:57:16.743Z,10.83
2022-11-19T17:59:43.333Z,9.73
2022-11-19T18:02:18.117Z,9.17
2022-11-19T18:04:46.864Z,11.20
2022-11-19T18:07:13.914Z,13.00
2022-11-19T18:09:43.918Z,13.70
2022-11-19T18:12:15.568Z,13.70
2022-11-19T18:14:42.460Z,12.80
2022-11-19T18:17:15.740Z,11.00
2022-11-19T18:19:42.500Z,12.60
2022-11-19T18:22:18.203Z,16.80
2022-11-19T18:24:49.698Z,16.27
2022-11-19T18:27:16.725Z,13.87
2022-11-19T18:29:43.259Z,14.30
2022-11-19T18:32:15.224Z,13.67
2022-11-19T18:34:41.925Z,14.23
2022-11-19T18:37:08.792Z,13.40
2022-11-19T18:39:35.441Z,13.13
2022-11-19T18:42:02.027Z,12.30
2022-11-19T18:44:34.619Z,12.97
2022-11-19T18:47:06.448Z,28.87
2022-11-19T18:49:35.940Z,35.00
2022-11-19T18:52:07.645Z,18.83
2022-11-19T18:54:34.609Z,20.40
2022-11-19T18:57:01.601Z,18.63
2022-11-19T18:59:29.737Z,12.50
2022-11-19T19:01:56.276Z,17.20
2022-11-19T19:04:23.990Z,18.03
2022-11-19T19:06:50.515Z,16.17
2022-11-19T19:09:20.640Z,16.10
2022-11-19T19:12:12.535Z,17.03
2022-11-19T19:14:39.771Z,13.37
2022-11-19T19:17:06.277Z,14.67
2022-11-19T19:19:32.755Z,14.90
2022-11-19T19:21:59.523Z,18.27
2022-11-19T19:24:26.569Z,17.10
2022-11-19T19:26:53.648Z,17.57
2022-11-19T19:29:20.452Z,17.50
2022-11-19T19:31:47.249Z,17.17
2022-11-19T19:34:13.764Z,17.23
2022-11-19T19:36:40.213Z,17.77
2022-11-19T19:39:06.810Z,16.93
2022-11-19T19:41:33.613Z,24.37
2022-11-19T19:44:02.737Z,19.97
2022-11-19T19:46:29.802Z,17.10
2022-11-19T19:48:56.644Z,17.93
2022-11-19T19:51:25.533Z,17.60
2022-11-19T19:53:52.948Z,16.97
2022-11-19T19:56:26.926Z,17.63
2022-11-19T19:58:57.776Z,18.03
2022-11-19T20:01:29.759Z,16.20
2022-11-19T20:04:07.937Z,17.20
2022-11-19T20:06:35.548Z,17.57
2022-11-19T20:09:08.116Z,15.50
2022-11-19T20:11:35.754Z,14.70
2022-11-19T20:14:02.434Z,15.33
2022-11-19T20:16:30.574Z,14.77
2022-11-19T20:18:58.796Z,16.73
2022-11-19T20:21:36.315Z,16.33
2022-11-19T20:24:08.677Z,17.43
2022-11-19T20:26:37.234Z,16.57
2022-11-19T20:29:05.410Z,16.60
2022-11-19T20:31:33.210Z,17.97
2022-11-19T20:34:01.763Z,18.83
2022-11-19T20:36:30.211Z,19.97
2022-11-19T20:38:57.549Z,18.83
2022-11-19T20:41:43.195Z,19.13
2022-11-19T20:44:20.183Z,22.23
2022-11-19T20:46:58.199Z,23.00
2022-11-19T20:49:29.673Z,23.30
2022-11-19T20:51:56.849Z,23.80
2022-11-19T20:54:24.263Z,22.97
2022-11-19T20:56:51.955Z,24.50
2022-11-19T20:59:18.892Z,22.10
2022-11-19T21:01:50.356Z,22.30
2022-11-19T21:04:17.393Z,26.23
2022-11-19T21:06:43.863Z,29.30
2022-11-19T21:09:10.493Z,26.87
2022-11-19T21:11:37.090Z,26.43
2022-11-19T21:14:03.983Z,20.03
2022-11-19T21:16:31.628Z,19.03
2022-11-19T21:18:58.203Z,17.23
2022-11-19T21:21:25.732Z,17.03
2022-11-19T21:23:53.404Z,17.03
2022-11-19T21:26:22.446Z,17.40
2022-11-19T21:28:53.777Z,18.20
2022-11-19T21:31:22.968Z,17.47
2022-11-19T21:33:49.502Z,16.90
2022-11-19T21:36:16.025Z,16.70
2022-11-19T21:38:42.514Z,16.70
2022-11-19T21:41:09.104Z,16.47
2022-11-19T21:43:35.768Z,16.97
2022-11-19T21:46:06.841Z,17.80
2022-11-19T21:48:33.286Z,18.07
2022-11-19T21:50:59.814Z,16.87
2022-11-19T21:53:26.367Z,18.03
2022-11-19T21:55:52.828Z,16.20
2022-11-19T21:58:19.960Z,15.33
2022-11-19T22:00:47.145Z,15.97
2022-11-19T22:03:14.227Z,15.90
2022-11-19T22:05:41.342Z,14.07
2022-11-19T22:08:08.199Z,15.70
2022-11-19T22:10:34.740Z,14.80
2022-11-19T22:13:01.257Z,14.07
2022-11-19T22:15:27.833Z,14.83
2022-11-19T22:17:54.335Z,14.87
2022-11-19T22:20:20.819Z,14.40
2022-11-19T22:22:47.458Z,14.90
2022-11-19T22:25:14.236Z,15.30
2022-11-19T22:27:41.796Z,15.30
2022-11-19T22:30:10.307Z,15.60
2022-11-19T22:32:37.082Z,19.60
2022-11-19T22:35:04.260Z,27.10
2022-11-19T22:37:30.702Z,25.83
2022-11-19T22:39:57.346Z,26.57
2022-11-19T22:42:23.834Z,19.90
2022-11-19T22:44:51.447Z,19.97
2022-11-19T22:47:17.932Z,25.90
2022-11-19T22:49:44.810Z,23.50
2022-11-19T22:52:11.270Z,25.20
2022-11-19T22:54:41.547Z,24.50
2022-11-19T22:57:08.683Z,23.40
2022-11-19T22:59:35.425Z,25.10
2022-11-19T23:02:01.925Z,23.80
2022-11-19T23:04:29.097Z,23.77
2022-11-19T23:06:55.654Z,24.33
2022-11-19T23:09:22.675Z,22.90
2022-11-19T23:12:08.044Z,24.50
2022-11-19T23:14:34.514Z,24.17
2022-11-19T23:17:01.157Z,23.87
2022-11-19T23:19:27.613Z,22.60
2022-11-19T23:21:54.160Z,23.13
2022-11-19T23:24:20.604Z,24.13
2022-11-19T23:26:47.054Z,21.77
2022-11-19T23:29:13.825Z,21.73
2022-11-19T23:31:40.526Z,24.27
2022-11-19T23:34:07.130Z,22.80
2022-11-19T23:36:36.322Z,20.60
2022-11-19T23:39:03.513Z,23.03
2022-11-19T23:41:32.498Z,22.67
2022-11-19T23:43:59.097Z,21.77
2022-11-19T23:46:27.920Z,22.53
2022-11-19T23:48:56.076Z,21.93
2022-11-19T23:51:30.899Z,21.80
2022-11-19T23:53:58.148Z,19.93
2022-11-19T23:56:25.519Z,22.07
2022-11-19T23:58:52.096Z,20.13
